Main page
METAR-TAF:

METAR-TAF

Airports :

Dharamsala, India

Gaggal Airport

latitude: 32-09-54N, longitude: 76-15-48E, elevation: 770 m

Current weather observation

The report was made 1 hour and 16 minutes ago, at 03:30 UTC
Wind 2 kt from the East/Southeast
Temperature 23°C
Humidity 100%
Pressure 1010 hPa
Visibility: 6000 m
Few clouds at a height of 1000 ft
Broken clouds at a height of 3000 ft
Broken clouds at a height of 8000 ft

METAR: VIGG 240330Z 12002KT 6000 FEW010 BKN030 BKN080 23/23 Q1010

Time: 10:16 (04:46 UTC)


TAF: missing

Weather observations and forecasts of more than 4000 airports (METAR and TAF reports).

The available stations are represented by yellow and red dots on the map.

Hover mouse over dot to see the name of the station.

Then click to see weather observations and forecasts.

To change the map : click on the green buttons with a black cross to zoom in, on the green button with a dash to zoom out, or on the green arrows for adjacent maps.


METAR-TAF: